Latest Weather Observations for Parawa West

IDS60901

Issued at 9:01 am CST Thursday 1 October 2020 (issued every 10 minutes, with the page automatically refreshed every 10 minutes)

About weather observations | Map of Adelaide area stations | Latest observations for Adelaide area | Other Formats
Station Details ID: 023875 Name: SECOND VALLEY FOREST AWS Lat: -35.57 Lon: 138.29 Height: 341.0 m
Data from the previous 72 hours. | See also: Recent months at Parawa West
Date/Time
CST
Temp
°C
App
Temp
°C
Dew
Point
°C
Rel
Hum
%
Delta-T
°C
Wind Press
QNH
hPa
Press
MSL
hPa
Rain since
9am
mm
Dir  Spd
km/h
Gust
km/h
Spd
kts
Gust
kts
01/09:00am 11.0 6.0 7.9 81 1.5 NW 24 37 13 20 1017.4 1017.4 6.4
01/08:30am 10.6 5.9 7.8 83 1.4 NW 22 35 12 19 1017.4 1017.4 6.4
01/08:00am 10.2 6.1 7.8 85 1.2 NNW 19 30 10 16 1017.0 1017.1 6.4
01/07:30am 9.5 6.2 7.9 90 0.8 NNW 15 24 8 13 1016.8 1016.9 6.4
01/07:00am 8.6 6.2 7.1 90 0.7 NNW 9 17 5 9 1016.7 1016.8 6.4
01/06:30am 7.8 5.8 6.3 90 0.7 NNW 6 9 3 5 1016.4 1016.5 6.4
01/06:00am 7.0 4.8 5.3 89 0.8 NW 6 9 3 5 1016.4 1016.5 6.4
01/05:30am 7.1 4.7 5.4 89 0.8 NW 7 11 4 6 1016.1 1016.1 6.4
01/05:00am 7.2 4.5 5.7 90 0.7 WNW 9 11 5 6 1016.0 1016.0 6.4
01/04:30am 7.0 4.4 5.9 93 0.5 WNW 9 11 5 6 1016.0 1016.0 6.4
01/04:00am 7.0 4.4 5.9 93 0.5 WNW 9 11 5 6 1015.5 1015.5 6.4
01/03:30am 6.7 4.0 5.7 93 0.5 WNW 9 11 5 6 1015.0 1015.0 6.4
01/03:00am 7.1 4.1 6.2 94 0.4 WNW 11 13 6 7 1015.1 1015.1 6.4
01/02:30am 7.1 4.5 5.9 92 0.5 WNW 9 11 5 6 1015.0 1015.0 6.4
01/02:00am 7.3 4.7 6.2 93 0.5 WNW 9 11 5 6 - - 6.4
01/01:30am 7.7 5.6 6.6 93 0.5 WNW 7 9 4 5 - - 6.4
01/01:00am 7.5 5.4 6.6 94 0.4 WNW 7 9 4 5 - - 6.2
01/12:30am 7.6 5.1 6.7 94 0.4 WNW 9 9 5 5 - - 6.2
01/12:00am 8.1 5.7 7.0 93 0.5 W 9 11 5 6 - - 6.2
 
Date/Time
CST
Temp
°C
App
Temp
°C
Dew
Point
°C
Rel
Hum
%
Delta-T
°C
Wind Press
QNH
hPa
Press
MSL
hPa
Rain since
9am
mm
Dir  Spd
km/h
Gust
km/h
Spd
kts
Gust
kts
30/11:30pm 8.0 6.2 7.1 94 0.4 W 6 7 3 4 - - 6.2
30/11:00pm 7.9 5.8 6.8 93 0.5 WNW 7 7 4 4 - - 6.2
30/10:30pm 8.4 6.0 7.0 91 0.7 W 9 13 5 7 - - 6.2
30/10:00pm 8.9 6.5 7.2 89 0.8 W 9 13 5 7 1015.8 1015.8 6.2
30/09:30pm 9.3 6.2 7.3 87 1.0 WSW 13 19 7 10 - - 6.2
30/09:00pm 9.5 7.1 6.9 84 1.2 WSW 9 15 5 8 1015.2 1015.2 6.2
30/08:30pm 9.2 7.1 6.8 85 1.1 SW 7 11 4 6 1015.1 1015.1 6.2
30/08:00pm 9.2 6.7 6.5 83 1.3 SW 9 13 5 7 1015.1 1015.1 6.2
30/07:30pm 9.6 7.4 6.3 80 1.6 SW 7 13 4 7 1014.3 1014.3 6.2
30/07:00pm 9.9 8.2 7.5 85 1.2 WSW 6 9 3 5 1013.6 1013.6 6.2
30/06:30pm 10.5 8.8 8.4 87 1.0 W 7 9 4 5 1013.0 1013.0 6.2
30/06:00pm 10.9 9.1 9.3 90 0.8 WSW 9 15 5 8 1012.6 1012.6 6.2
30/05:30pm 11.4 7.8 10.5 94 0.5 WSW 20 33 11 18 1012.6 1012.6 6.2
30/05:00pm 12.4 9.2 11.1 92 0.7 WNW 19 28 10 15 1012.0 1012.0 5.0
30/04:30pm 12.5 9.0 10.9 90 0.9 WNW 20 32 11 17 1011.6 1011.6 5.0
30/04:00pm 12.9 8.0 11.3 90 0.9 WNW 28 43 15 23 1010.8 1010.8 5.0
30/03:30pm 12.7 8.8 12.1 96 0.3 WNW 24 39 13 21 1010.7 1010.7 5.0
30/03:00pm 12.3 8.3 11.8 97 0.3 WNW 24 37 13 20 1011.1 1011.0 5.0
30/02:30pm 11.5 7.7 11.3 99 0.1 WNW 22 33 12 18 1011.3 1011.2 5.0
30/02:03pm 11.6 6.7 11.4 99 0.1 WNW 28 54 15 29 1010.9 1010.9 3.4
30/02:00pm 11.8 7.7 11.6 99 0.1 WNW 24 39 13 21 1011.1 1011.0 3.2
30/01:30pm 11.7 7.6 11.5 99 0.1 WNW 24 39 13 21 1010.8 1010.8 2.4
30/01:00pm 11.6 8.4 11.4 99 0.1 NW 19 33 10 18 1011.1 1011.0 2.2
30/12:30pm 11.4 7.2 11.1 98 0.2 NW 24 37 13 20 1011.1 1011.0 1.0
30/12:00pm 11.3 7.5 11.0 98 0.2 NW 22 37 12 20 1011.1 1011.0 0.2
30/11:30am 11.0 7.4 10.7 98 0.2 NW 20 37 11 20 1011.3 1011.2 0.2
30/11:00am 11.1 7.7 10.6 97 0.3 NW 19 30 10 16 1011.7 1011.7 0.0
30/10:30am 11.0 6.9 10.1 94 0.5 NW 22 35 12 19 1011.7 1011.7 0.0
30/10:00am 11.1 6.6 10.2 94 0.5 NW 24 35 13 19 1011.8 1011.8 0.0
30/09:30am 12.0 8.8 11.1 94 0.5 NNW 19 28 10 15 1011.5 1011.5 0.0
30/09:00am 11.1 7.6 10.2 94 0.5 NW 19 28 10 15 1011.7 1011.7 20.4
30/08:30am 10.8 7.1 10.0 95 0.4 NW 20 28 11 15 1011.8 1011.8 20.4
30/08:00am 10.6 8.2 10.0 96 0.3 NW 13 26 7 14 1011.6 1011.6 20.4
30/07:30am 10.5 7.2 9.6 94 0.5 WNW 17 24 9 13 1011.5 1011.5 20.4
30/07:00am 10.0 7.3 8.9 93 0.6 NW 13 20 7 11 1011.2 1011.1 20.4
30/06:30am 9.9 6.9 9.1 95 0.4 NW 15 26 8 14 1011.1 1011.0 20.4
30/06:00am 9.7 6.7 9.1 96 0.3 NW 15 22 8 12 1010.6 1010.6 20.4
30/05:30am 9.7 6.3 9.2 97 0.3 NW 17 24 9 13 1010.2 1010.2 20.4
30/05:00am 9.7 6.4 9.6 99 0.1 WNW 17 28 9 15 1010.2 1010.2 20.4
30/04:30am 9.7 6.8 9.7 100 0.0 WNW 15 22 8 12 1010.1 1010.1 20.4
30/04:00am 9.9 6.3 9.9 100 0.0 WNW 19 26 10 14 1010.2 1010.2 20.4
30/03:30am 10.3 7.6 10.3 100 0.0 WNW 15 20 8 11 1010.3 1010.3 20.0
30/03:00am 10.1 8.1 10.1 100 0.0 WNW 11 20 6 11 1010.4 1010.4 20.0
30/02:30am 10.6 8.3 10.6 100 0.0 WNW 13 22 7 12 1010.6 1010.6 19.8
30/02:00am 10.4 7.7 10.4 100 0.0 WNW 15 26 8 14 1010.8 1010.8 19.6
30/01:30am 10.5 6.1 10.5 100 0.0 WNW 24 37 13 20 1010.8 1010.8 19.2
30/01:00am 11.0 7.5 11.0 100 0.0 NW 20 28 11 15 1011.1 1011.0 19.2
30/12:30am 11.3 7.9 11.3 100 0.0 NW 20 35 11 19 1011.1 1011.0 19.2
30/12:00am 11.8 9.5 11.8 100 0.0 NNW 15 24 8 13 1011.5 1011.5 19.0
 
Date/Time
CST
Temp
°C
App
Temp
°C
Dew
Point
°C
Rel
Hum
%
Delta-T
°C
Wind Press
QNH
hPa
Press
MSL
hPa
Rain since
9am
mm
Dir  Spd
km/h
Gust
km/h
Spd
kts
Gust
kts
29/11:30pm 11.7 10.1 11.7 100 0.0 NW 11 19 6 10 1012.0 1012.0 18.0
29/11:00pm 11.7 10.5 11.7 100 0.0 NW 9 20 5 11 1012.4 1012.4 16.0
29/10:30pm 11.7 10.5 11.7 100 0.0 NW 9 17 5 9 1012.6 1012.6 15.4
29/10:00pm 11.8 11.0 11.6 99 0.1 NW 7 22 4 12 1012.6 1012.6 14.4
29/09:30pm 11.8 11.0 11.6 99 0.1 NW 7 17 4 9 1012.9 1012.9 13.6
29/09:00pm 11.8 11.2 11.6 99 0.1 NW 6 15 3 8 1012.9 1012.9 13.6
29/08:30pm 11.8 11.5 11.6 99 0.1 NNE 4 13 2 7 1013.1 1013.1 13.4
29/08:00pm 11.9 11.7 11.7 99 0.1 N 4 11 2 6 1012.7 1012.7 13.0
29/07:30pm 11.9 11.7 11.7 99 0.1 SW 4 6 2 3 1012.9 1012.9 12.8
29/07:00pm 11.9 11.3 11.7 99 0.1 NNW 6 11 3 6 1013.2 1013.2 12.2
29/06:30pm 12.0 11.2 11.8 99 0.1 NW 7 15 4 8 1013.6 1013.6 11.4
29/06:00pm 12.0 10.9 11.8 99 0.1 NW 9 17 5 9 1013.6 1013.6 10.2
29/05:30pm 11.9 11.3 11.7 99 0.1 NNW 6 13 3 7 1013.5 1013.5 9.2
29/05:00pm 11.9 11.6 11.6 98 0.2 NNW 4 13 2 7 1013.2 1013.2 8.0
29/04:30pm 11.9 12.0 11.6 98 0.2 WNW 2 9 1 5 1013.3 1013.3 7.4
29/04:00pm 11.8 10.2 11.5 98 0.2 N 11 20 6 11 1013.4 1013.4 5.8
29/03:30pm 12.0 10.1 11.7 98 0.2 NNW 13 19 7 10 1013.4 1013.4 3.2
29/03:00pm 11.8 10.1 11.2 96 0.3 NW 11 17 6 9 1013.8 1013.8 2.2
29/02:30pm 11.7 9.4 10.4 92 0.7 NW 13 24 7 13 1014.3 1014.3 1.4
29/02:00pm 12.6 9.9 10.5 87 1.1 NNW 15 24 8 13 1014.4 1014.4 1.4
29/01:30pm 12.2 8.4 9.9 86 1.2 NW 20 32 11 17 1013.8 1013.8 1.4
29/01:00pm 11.5 7.6 9.6 88 1.0 NNW 20 32 11 17 1014.7 1014.7 1.2
29/12:30pm 11.1 8.1 9.4 89 0.9 NW 15 30 8 16 1015.2 1015.2 1.0
29/12:00pm 11.4 9.6 9.3 87 1.1 NW 9 17 5 9 1015.2 1015.2 0.8
29/11:30am 13.0 10.6 8.7 75 2.2 NW 11 26 6 14 1015.6 1015.6 0.4
29/11:00am 13.4 11.7 8.3 71 2.6 WNW 7 22 4 12 1015.9 1015.9 0.2
29/10:30am 15.1 11.3 5.6 53 4.6 NW 15 39 8 21 1016.2 1016.2 0.0
29/10:00am 16.6 14.2 5.3 47 5.5 NW 7 20 4 11 1015.8 1015.8 0.0
29/09:30am 16.3 13.9 5.3 48 5.3 NW 7 17 4 9 1015.8 1015.8 0.0
29/09:00am 16.3 13.9 5.3 48 5.3 WNW 7 15 4 8 1015.6 1015.6 0.0
29/08:30am 15.7 13.1 4.4 47 5.4 WNW 7 19 4 10 1015.8 1015.8 0.0
29/08:00am 15.4 12.9 4.5 48 5.2 N 7 22 4 12 1015.8 1015.8 0.0
29/07:30am 14.8 12.4 4.5 50 4.9 NW 6 15 3 8 1015.9 1015.9 0.0
29/07:00am 14.4 11.9 3.8 49 4.9 N 6 17 3 9 1015.6 1015.6 0.0
29/06:30am 13.7 11.6 4.0 52 4.5 S 4 9 2 5 1015.6 1015.6 0.0
29/06:00am 13.4 10.9 3.8 52 4.4 W 6 13 3 7 1015.7 1015.7 0.0
29/05:30am 13.1 11.0 3.7 53 4.3 NW 4 13 2 7 1015.5 1015.5 0.0
29/05:00am 12.9 10.5 4.1 55 4.1 NNE 6 11 3 6 1015.4 1015.4 0.0
29/04:30am 13.0 10.5 3.9 54 4.2 NE 6 13 3 7 1015.5 1015.5 0.0
29/04:00am 13.2 10.8 4.1 54 4.2 NNE 6 17 3 9 1015.7 1015.7 0.0
29/03:30am 13.2 10.8 4.1 54 4.2 N 6 11 3 6 1015.9 1015.9 0.0
29/03:00am 13.2 10.7 3.8 53 4.3 NNE 6 15 3 8 1016.3 1016.3 0.0
29/02:30am 13.5 11.1 4.1 53 4.4 WNW 6 11 3 6 1017.0 1017.1 0.0
29/02:00am 13.5 11.4 3.8 52 4.5 SSW 4 7 2 4 1017.1 1017.2 0.0
29/01:30am 13.2 10.8 4.1 54 4.2 NW 6 9 3 5 1017.0 1017.1 0.0
29/01:00am 12.5 10.5 4.5 58 3.7 NNW 4 9 2 5 1017.4 1017.4 0.0
29/12:30am 10.7 8.8 4.8 67 2.7 NNW 4 11 2 6 1017.8 1017.8 0.0
29/12:00am 10.8 8.5 4.7 66 2.8 NE 6 13 3 7 1018.2 1018.2 0.0
 
Date/Time
CST
Temp
°C
App
Temp
°C
Dew
Point
°C
Rel
Hum
%
Delta-T
°C
Wind Press
QNH
hPa
Press
MSL
hPa
Rain since
9am
mm
Dir  Spd
km/h
Gust
km/h
Spd
kts
Gust
kts
28/11:30pm 11.1 8.3 5.2 67 2.8 NE 9 15 5 8 - - 0.0
28/11:00pm 12.3 8.3 4.8 60 3.5 NE 15 22 8 12 1018.7 1018.7 0.0
28/10:30pm 12.7 8.7 4.9 59 3.7 NE 15 22 8 12 1018.9 1019.0 0.0
28/10:00pm 13.1 8.7 4.5 56 4.0 NE 17 22 9 12 1019.5 1019.6 0.0
28/09:30pm 13.4 9.3 4.6 55 4.1 NE 15 20 8 11 1019.9 1020.0 0.0
28/09:00pm 13.3 10.0 4.7 56 4.0 NE 11 17 6 9 1020.5 1020.5 0.0
28/08:30pm 13.3 11.0 4.7 56 4.0 NE 6 11 3 6 1020.7 1020.7 0.0
28/08:00pm 13.3 10.9 5.2 58 3.8 NE 7 13 4 7 1020.5 1020.5 0.0
28/07:30pm 13.7 11.4 5.6 58 3.9 NE 7 11 4 6 1020.0 1020.1 0.0
28/07:00pm 14.1 11.4 5.5 56 4.1 NE 9 13 5 7 1019.8 1019.9 0.0
28/06:30pm 14.7 12.4 5.8 55 4.3 NE 7 11 4 6 1019.8 1019.9 0.0
28/06:00pm 15.1 14.5 7.6 61 3.8 CALM 0 2 0 1 1019.8 1019.9 0.0
28/05:30pm 16.2 14.5 7.4 56 4.5 NE 6 9 3 5 1019.7 1019.8 0.0
28/05:00pm 16.8 14.3 8.0 56 4.5 ENE 11 17 6 9 1019.7 1019.8 0.0
28/04:30pm 17.1 15.1 6.9 51 5.1 NNE 7 19 4 10 1019.7 1019.8 0.0
28/04:00pm 17.3 15.9 7.4 52 5.1 N 4 11 2 6 1019.8 1019.9 0.0
28/03:30pm 17.2 15.4 7.3 52 5.0 N 6 11 3 6 1019.9 1020.0 0.0
28/03:00pm 17.6 16.0 7.9 53 5.0 N 6 11 3 6 1020.0 1020.1 0.0
28/02:30pm 16.9 15.1 7.0 52 5.0 NNW 6 13 3 7 1020.6 1020.6 0.0
28/02:00pm 16.8 14.8 6.9 52 5.0 NNW 7 13 4 7 1021.2 1021.2 0.0
28/01:30pm 17.1 15.4 7.5 53 4.9 NNW 6 11 3 6 1021.4 1021.4 0.0
28/01:00pm 17.0 15.5 8.4 57 4.5 NNE 6 15 3 8 1021.9 1022.0 0.0
28/12:30pm 16.7 15.3 8.7 59 4.2 NNE 6 11 3 6 1022.3 1022.4 0.0
28/12:00pm 16.4 14.3 6.5 52 4.9 N 7 13 4 7 1022.7 1022.8 0.0
28/11:30am 16.5 15.2 9.2 62 3.8 N 6 13 3 7 1023.3 1023.4 0.0
28/11:00am 15.9 14.0 7.7 58 4.2 N 7 13 4 7 1023.8 1023.8 0.0
28/10:30am 15.5 13.7 7.8 60 3.9 NE 7 15 4 8 1024.2 1024.3 0.0
28/10:00am 15.2 13.3 7.7 61 3.8 NE 7 15 4 8 1024.6 1024.7 0.0
28/09:30am 14.9 12.9 7.2 60 3.8 NE 7 13 4 7 1024.7 1024.8 0.0

Latest Capital City Observations: Canberra | Sydney | Melbourne | Brisbane | Adelaide | Perth | Hobart | Darwin

Other formats

Comma delimited format used in spreadsheet applications
http://www.bom.gov.au/fwo/IDS60901/IDS60901.94811.axf

JavaScript Object Notation format (JSON) in row-major order
http://www.bom.gov.au/fwo/IDS60901/IDS60901.94811.json

Data quality

Most of these data are generated automatically and are frequently updated. Quality checks on data are not normally performed. It is possible for incorrect values to appear. Refer to information at About Latest Weather Observations and please check the disclaimer before using these data.